sensor_id;sensor_type;location;lat;lon;timestamp;pressure;altitude;pressure_sealevel;temperature
79632;BMP280;69108;41.120;16.874;2023-11-22T00:01:58;100308.75;;;18.24
79632;BMP280;69108;41.120;16.874;2023-11-22T00:04:28;100317.94;;;18.26
79632;BMP280;69108;41.120;16.874;2023-11-22T00:06:55;100310.72;;;18.23
79632;BMP280;69108;41.120;16.874;2023-11-22T00:09:24;100311.94;;;18.22
79632;BMP280;69108;41.120;16.874;2023-11-22T00:11:54;100311.94;;;18.22
79632;BMP280;69108;41.120;16.874;2023-11-22T00:14:21;100313.19;;;18.21
79632;BMP280;69108;41.120;16.874;2023-11-22T00:16:48;100306.72;;;18.19
79632;BMP280;69108;41.120;16.874;2023-11-22T00:19:15;100302.00;;;18.19
79632;BMP280;69108;41.120;16.874;2023-11-22T00:21:45;100297.00;;;18.18
79632;BMP280;69108;41.120;16.874;2023-11-22T00:24:18;100298.53;;;18.19
79632;BMP280;69108;41.120;16.874;2023-11-22T00:26:46;100292.28;;;18.18
79632;BMP280;69108;41.120;16.874;2023-11-22T00:29:14;100295.03;;;18.18
79632;BMP280;69108;41.120;16.874;2023-11-22T00:31:41;100293.81;;;18.19
79632;BMP280;69108;41.120;16.874;2023-11-22T00:34:14;100289.56;;;18.18
79632;BMP280;69108;41.120;16.874;2023-11-22T00:36:43;100293.28;;;18.21
79632;BMP280;69108;41.120;16.874;2023-11-22T00:39:12;100295.53;;;18.22
79632;BMP280;69108;41.120;16.874;2023-11-22T00:41:39;100294.31;;;18.23
79632;BMP280;69108;41.120;16.874;2023-11-22T00:44:07;100289.63;;;18.24
79632;BMP280;69108;41.120;16.874;2023-11-22T00:46:34;100291.31;;;18.21
79632;BMP280;69108;41.120;16.874;2023-11-22T00:49:03;100274.38;;;18.17
79632;BMP280;69108;41.120;16.874;2023-11-22T00:51:31;100282.63;;;18.23
79632;BMP280;69108;41.120;16.874;2023-11-22T00:53:57;100282.94;;;18.25
79632;BMP280;69108;41.120;16.874;2023-11-22T00:56:31;100262.69;;;18.17
79632;BMP280;69108;41.120;16.874;2023-11-22T00:58:59;100273.47;;;18.26
79632;BMP280;69108;41.120;16.874;2023-11-22T01:01:29;100270.00;;;18.25
79632;BMP280;69108;41.120;16.874;2023-11-22T01:03:57;100285.91;;;18.27
79632;BMP280;69108;41.120;16.874;2023-11-22T01:06:35;100278.47;;;18.27
79632;BMP280;69108;41.120;16.874;2023-11-22T01:09:02;100274.97;;;18.27
79632;BMP280;69108;41.120;16.874;2023-11-22T01:11:31;100264.78;;;18.27
79632;BMP280;69108;41.120;16.874;2023-11-22T01:13:58;100267.03;;;18.29
79632;BMP280;69108;41.120;16.874;2023-11-22T01:16:25;100265.81;;;18.30
79632;BMP280;69108;41.120;16.874;2023-11-22T01:18:52;100265.81;;;18.30
79632;BMP280;69108;41.120;16.874;2023-11-22T01:21:20;100258.34;;;18.30
79632;BMP280;69108;41.120;16.874;2023-11-22T01:23:49;100254.88;;;18.30
79632;BMP280;69108;41.120;16.874;2023-11-22T01:26:16;100255.88;;;18.33
79632;BMP280;69108;41.120;16.874;2023-11-22T01:28:45;100250.88;;;18.31
79632;BMP280;69108;41.120;16.874;2023-11-22T01:31:12;100249.66;;;18.32
79632;BMP280;69108;41.120;16.874;2023-11-22T01:33:40;100248.91;;;18.31
79632;BMP280;69108;41.120;16.874;2023-11-22T01:36:08;100254.38;;;18.31
79632;BMP280;69108;41.120;16.874;2023-11-22T01:38:36;100255.63;;;18.30
79632;BMP280;69108;41.120;16.874;2023-11-22T01:41:04;100251.63;;;18.31
79632;BMP280;69108;41.120;16.874;2023-11-22T01:43:31;100248.91;;;18.31
79632;BMP280;69108;41.120;16.874;2023-11-22T01:46:00;100242.69;;;18.31
79632;BMP280;69108;41.120;16.874;2023-11-22T01:48:29;100245.41;;;18.31
79632;BMP280;69108;41.120;16.874;2023-11-22T01:50:59;100245.41;;;18.31
79632;BMP280;69108;41.120;16.874;2023-11-22T01:53:26;100245.94;;;18.29
79632;BMP280;69108;41.120;16.874;2023-11-22T01:55:56;100237.22;;;18.31
79632;BMP280;69108;41.120;16.874;2023-11-22T01:58:24;100238.72;;;18.32
79632;BMP280;69108;41.120;16.874;2023-11-22T02:01:00;100227.56;;;18.30
79632;BMP280;69108;41.120;16.874;2023-11-22T02:03:29;100225.53;;;18.30
79632;BMP280;69108;41.120;16.874;2023-11-22T02:05:57;100220.09;;;18.30
79632;BMP280;69108;41.120;16.874;2023-11-22T02:08:33;100220.09;;;18.30
79632;BMP280;69108;41.120;16.874;2023-11-22T02:11:04;100208.88;;;18.28
79632;BMP280;69108;41.120;16.874;2023-11-22T02:13:31;100216.34;;;18.28
79632;BMP280;69108;41.120;16.874;2023-11-22T02:16:00;100203.91;;;18.27
79632;BMP280;69108;41.120;16.874;2023-11-22T02:18:31;100203.91;;;18.27
79632;BMP280;69108;41.120;16.874;2023-11-22T02:21:05;100191.22;;;18.24
79632;BMP280;69108;41.120;16.874;2023-11-22T02:23:34;100189.25;;;18.24
79632;BMP280;69108;41.120;16.874;2023-11-22T02:26:01;100193.19;;;18.23
79632;BMP280;69108;41.120;16.874;2023-11-22T02:28:29;100192.44;;;18.23
79632;BMP280;69108;41.120;16.874;2023-11-22T02:30:56;100199.88;;;18.22
79632;BMP280;69108;41.120;16.874;2023-11-22T02:33:22;100193.19;;;18.23
79632;BMP280;69108;41.120;16.874;2023-11-22T02:35:50;100200.94;;;18.25
79632;BMP280;69108;41.120;16.874;2023-11-22T02:38:17;100188.22;;;18.22
79632;BMP280;69108;41.120;16.874;2023-11-22T02:40:45;100190.00;;;18.25
79632;BMP280;69108;41.120;16.874;2023-11-22T02:43:13;100192.22;;;18.26
79632;BMP280;69108;41.120;16.874;2023-11-22T02:45:41;100191.44;;;18.26
79632;BMP280;69108;41.120;16.874;2023-11-22T02:48:08;100192.22;;;18.26
79632;BMP280;69108;41.120;16.874;2023-11-22T02:50:37;100190.72;;;18.25
79632;BMP280;69108;41.120;16.874;2023-11-22T02:53:05;100186.75;;;18.26
79632;BMP280;69108;41.120;16.874;2023-11-22T02:55:33;100184.75;;;18.27
79632;BMP280;69108;41.120;16.874;2023-11-22T02:58:04;100192.97;;;18.27
79632;BMP280;69108;41.120;16.874;2023-11-22T03:00:32;100193.72;;;18.27
79632;BMP280;69108;41.120;16.874;2023-11-22T03:03:00;100194.47;;;18.28
79632;BMP280;69108;41.120;16.874;2023-11-22T03:05:29;100194.47;;;18.28
79632;BMP280;69108;41.120;16.874;2023-11-22T03:07:56;100182.03;;;18.27
79632;BMP280;69108;41.120;16.874;2023-11-22T03:10:23;100187.50;;;18.27
79632;BMP280;69108;41.120;16.874;2023-11-22T03:12:52;100177.78;;;18.26
79632;BMP280;69108;41.120;16.874;2023-11-22T03:15:21;100184.00;;;18.26
79632;BMP280;69108;41.120;16.874;2023-11-22T03:17:48;100178.31;;;18.24
79632;BMP280;69108;41.120;16.874;2023-11-22T03:20:15;100183.00;;;18.24
79632;BMP280;69108;41.120;16.874;2023-11-22T03:22:42;100190.47;;;18.23
79632;BMP280;69108;41.120;16.874;2023-11-22T03:25:12;100182.00;;;18.21
79632;BMP280;69108;41.120;16.874;2023-11-22T03:27:39;100185.00;;;18.23
79632;BMP280;69108;41.120;16.874;2023-11-22T03:30:07;100176.78;;;18.23
79632;BMP280;69108;41.120;16.874;2023-11-22T03:32:38;100185.47;;;18.22
79632;BMP280;69108;41.120;16.874;2023-11-22T03:35:07;100193.94;;;18.24
79632;BMP280;69108;41.120;16.874;2023-11-22T03:37:34;100190.72;;;18.25
79632;BMP280;69108;41.120;16.874;2023-11-22T03:40:01;100207.13;;;18.25
79632;BMP280;69108;41.120;16.874;2023-11-22T03:42:30;100214.84;;;18.27
79632;BMP280;69108;41.120;16.874;2023-11-22T03:44:56;100205.41;;;18.28
79632;BMP280;69108;41.120;16.874;2023-11-22T03:47:25;100204.38;;;18.25
79632;BMP280;69108;41.120;16.874;2023-11-22T03:49:54;100219.34;;;18.30
79632;BMP280;69108;41.120;16.874;2023-11-22T03:52:21;100231.00;;;18.25
79632;BMP280;69108;41.120;16.874;2023-11-22T03:54:48;100228.72;;;18.23
79632;BMP280;69108;41.120;16.874;2023-11-22T03:57:14;100233.91;;;18.16
79632;BMP280;69108;41.120;16.874;2023-11-22T03:59:42;100237.09;;;18.14
79632;BMP280;69108;41.120;16.874;2023-11-22T04:02:09;100230.09;;;18.08
79632;BMP280;69108;41.120;16.874;2023-11-22T04:04:36;100244.25;;;18.06
79632;BMP280;69108;41.120;16.874;2023-11-22T04:07:06;100253.16;;;18.07
79632;BMP280;69108;41.120;16.874;2023-11-22T04:09:34;100249.44;;;18.04
79632;BMP280;69108;41.120;16.874;2023-11-22T04:12:01;100253.88;;;18.02
79632;BMP280;69108;41.120;16.874;2023-11-22T04:14:32;100256.06;;;17.98
79632;BMP280;69108;41.120;16.874;2023-11-22T04:16:59;100251.28;;;17.93
79632;BMP280;69108;41.120;16.874;2023-11-22T04:19:26;100246.56;;;17.88
79632;BMP280;69108;41.120;16.874;2023-11-22T04:21:53;100245.28;;;17.89
79632;BMP280;69108;41.120;16.874;2023-11-22T04:24:22;100253.03;;;17.90
79632;BMP280;69108;41.120;16.874;2023-11-22T04:26:49;100255.44;;;17.88
79632;BMP280;69108;41.120;16.874;2023-11-22T04:29:16;100256.44;;;17.85
79632;BMP280;69108;41.120;16.874;2023-11-22T04:31:43;100252.69;;;17.83
79632;BMP280;69108;41.120;16.874;2023-11-22T04:34:10;100249.41;;;17.79
79632;BMP280;69108;41.120;16.874;2023-11-22T04:36:37;100251.19;;;17.82
79632;BMP280;69108;41.120;16.874;2023-11-22T04:39:04;100258.88;;;17.83
79632;BMP280;69108;41.120;16.874;2023-11-22T04:41:33;100251.44;;;17.84
79632;BMP280;69108;41.120;16.874;2023-11-22T04:44:01;100248.16;;;17.80
79632;BMP280;69108;41.120;16.874;2023-11-22T04:46:29;100245.44;;;17.80
79632;BMP280;69108;41.120;16.874;2023-11-22T04:48:56;100238.47;;;17.79
79632;BMP280;69108;41.120;16.874;2023-11-22T04:51:23;100230.03;;;17.77
79632;BMP280;69108;41.120;16.874;2023-11-22T04:53:58;100242.19;;;17.76
79632;BMP280;69108;41.120;16.874;2023-11-22T04:56:25;100224.50;;;17.71
79632;BMP280;69108;41.120;16.874;2023-11-22T04:58:53;100227.72;;;17.70
79632;BMP280;69108;41.120;16.874;2023-11-22T05:01:21;100227.72;;;17.70
79632;BMP280;69108;41.120;16.874;2023-11-22T05:03:48;100221.19;;;17.62
79632;BMP280;69108;41.120;16.874;2023-11-22T05:06:15;100220.44;;;17.61
79632;BMP280;69108;41.120;16.874;2023-11-22T05:08:43;100215.72;;;17.62
79632;BMP280;69108;41.120;16.874;2023-11-22T05:11:10;100217.69;;;17.61
79632;BMP280;69108;41.120;16.874;2023-11-22T05:13:37;100218.91;;;17.60
79632;BMP280;69108;41.120;16.874;2023-11-22T05:16:09;100237.28;;;17.60
79632;BMP280;69108;41.120;16.874;2023-11-22T05:18:36;100233.53;;;17.57
79632;BMP280;69108;41.120;16.874;2023-11-22T05:21:03;100235.53;;;17.57
79632;BMP280;69108;41.120;16.874;2023-11-22T05:23:30;100231.03;;;17.54
79632;BMP280;69108;41.120;16.874;2023-11-22T05:25:57;100231.03;;;17.54
79632;BMP280;69108;41.120;16.874;2023-11-22T05:28:25;100222.84;;;17.54
79632;BMP280;69108;41.120;16.874;2023-11-22T05:30:53;100236.75;;;17.56
79632;BMP280;69108;41.120;16.874;2023-11-22T05:33:27;100235.53;;;17.57
79632;BMP280;69108;41.120;16.874;2023-11-22T05:35:54;100248.88;;;17.55
79632;BMP280;69108;41.120;16.874;2023-11-22T05:38:21;100253.59;;;17.54
79632;BMP280;69108;41.120;16.874;2023-11-22T05:40:48;100272.00;;;17.54
79632;BMP280;69108;41.120;16.874;2023-11-22T05:43:16;100274.97;;;17.56
79632;BMP280;69108;41.120;16.874;2023-11-22T05:45:43;100268.97;;;17.52
79632;BMP280;69108;41.120;16.874;2023-11-22T05:48:16;100275.09;;;17.47
79632;BMP280;69108;41.120;16.874;2023-11-22T05:50:44;100276.63;;;17.48
79632;BMP280;69108;41.120;16.874;2023-11-22T05:53:12;100282.38;;;17.50
79632;BMP280;69108;41.120;16.874;2023-11-22T05:55:46;100288.81;;;17.52
79632;BMP280;69108;41.120;16.874;2023-11-22T05:58:16;100288.81;;;17.52
79632;BMP280;69108;41.120;16.874;2023-11-22T06:00:43;100299.28;;;17.54
79632;BMP280;69108;41.120;16.874;2023-11-22T06:03:11;100305.00;;;17.56
79632;BMP280;69108;41.120;16.874;2023-11-22T06:05:38;100301.78;;;17.57
79632;BMP280;69108;41.120;16.874;2023-11-22T06:08:07;100300.31;;;17.56
79632;BMP280;69108;41.120;16.874;2023-11-22T06:10:36;100309.25;;;17.57
79632;BMP280;69108;41.120;16.874;2023-11-22T06:13:03;100303.78;;;17.57
79632;BMP280;69108;41.120;16.874;2023-11-22T06:15:30;100306.53;;;17.57
79632;BMP280;69108;41.120;16.874;2023-11-22T06:17:59;100312.25;;;17.59
79632;BMP280;69108;41.120;16.874;2023-11-22T06:20:27;100308.78;;;17.58
79632;BMP280;69108;41.120;16.874;2023-11-22T06:23:07;100315.72;;;17.59
79632;BMP280;69108;41.120;16.874;2023-11-22T06:25:37;100317.97;;;17.61
79632;BMP280;69108;41.120;16.874;2023-11-22T06:28:06;100319.47;;;17.62
79632;BMP280;69108;41.120;16.874;2023-11-22T06:30:34;100318.72;;;17.61
79632;BMP280;69108;41.120;16.874;2023-11-22T06:33:01;100323.44;;;17.61
79632;BMP280;69108;41.120;16.874;2023-11-22T06:35:28;100325.47;;;17.66
79632;BMP280;69108;41.120;16.874;2023-11-22T06:37:58;100330.88;;;17.60
79632;BMP280;69108;41.120;16.874;2023-11-22T06:40:25;100344.06;;;17.62
79632;BMP280;69108;41.120;16.874;2023-11-22T06:42:57;100356.75;;;17.65
79632;BMP280;69108;41.120;16.874;2023-11-22T06:45:24;100357.03;;;17.67
79632;BMP280;69108;41.120;16.874;2023-11-22T06:47:51;100365.72;;;17.65
79632;BMP280;69108;41.120;16.874;2023-11-22T06:50:18;100371.44;;;17.67
79632;BMP280;69108;41.120;16.874;2023-11-22T06:52:46;100372.38;;;17.64
79632;BMP280;69108;41.120;16.874;2023-11-22T06:55:15;100379.88;;;17.69
79632;BMP280;69108;41.120;16.874;2023-11-22T06:57:44;100384.91;;;17.71
79632;BMP280;69108;41.120;16.874;2023-11-22T07:00:17;100393.81;;;17.71
79632;BMP280;69108;41.120;16.874;2023-11-22T07:02:44;100401.06;;;17.74
79632;BMP280;69108;41.120;16.874;2023-11-22T07:05:12;100399.09;;;17.75
79632;BMP280;69108;41.120;16.874;2023-11-22T07:07:41;100405.50;;;17.72
79632;BMP280;69108;41.120;16.874;2023-11-22T07:10:10;100410.50;;;17.73
79632;BMP280;69108;41.120;16.874;2023-11-22T07:12:39;100420.94;;;17.75
79632;BMP280;69108;41.120;16.874;2023-11-22T07:15:10;100422.38;;;17.70
79632;BMP280;69108;41.120;16.874;2023-11-22T07:17:45;100429.31;;;17.71
79632;BMP280;69108;41.120;16.874;2023-11-22T07:20:13;100425.88;;;17.71
79632;BMP280;69108;41.120;16.874;2023-11-22T07:22:43;100427.34;;;17.72
79632;BMP280;69108;41.120;16.874;2023-11-22T07:25:10;100436.03;;;17.70
79632;BMP280;69108;41.120;16.874;2023-11-22T07:27:48;100429.25;;;17.66
79632;BMP280;69108;41.120;16.874;2023-11-22T07:30:17;100436.50;;;17.69
79632;BMP280;69108;41.120;16.874;2023-11-22T07:32:53;100440.72;;;17.70
79632;BMP280;69108;41.120;16.874;2023-11-22T07:35:21;100462.59;;;17.70
79632;BMP280;69108;41.120;16.874;2023-11-22T07:37:49;100461.47;;;17.62
79632;BMP280;69108;41.120;16.874;2023-11-22T07:40:23;100469.13;;;17.58
79632;BMP280;69108;41.120;16.874;2023-11-22T07:42:53;100473.38;;;17.59
79632;BMP280;69108;41.120;16.874;2023-11-22T07:45:22;100474.28;;;17.56
79632;BMP280;69108;41.120;16.874;2023-11-22T07:47:55;100482.28;;;17.59
79632;BMP280;69108;41.120;16.874;2023-11-22T07:50:26;100481.56;;;17.59
79632;BMP280;69108;41.120;16.874;2023-11-22T07:52:55;100482.38;;;17.65
79632;BMP280;69108;41.120;16.874;2023-11-22T07:55:24;100484.34;;;17.64
79632;BMP280;69108;41.120;16.874;2023-11-22T07:57:57;100497.53;;;17.66
79632;BMP280;69108;41.120;16.874;2023-11-22T08:00:26;100504.41;;;17.61
79632;BMP280;69108;41.120;16.874;2023-11-22T08:02:57;100508.09;;;17.58
79632;BMP280;69108;41.120;16.874;2023-11-22T08:05:26;100501.59;;;17.56
79632;BMP280;69108;41.120;16.874;2023-11-22T08:07:54;100501.78;;;17.52
79632;BMP280;69108;41.120;16.874;2023-11-22T08:10:23;100516.97;;;17.53
79632;BMP280;69108;41.120;16.874;2023-11-22T08:12:54;100507.72;;;17.51
79632;BMP280;69108;41.120;16.874;2023-11-22T08:15:27;100502.81;;;17.55
79632;BMP280;69108;41.120;16.874;2023-11-22T08:17:59;100495.69;;;17.43
79632;BMP280;69108;41.120;16.874;2023-11-22T08:20:44;100503.66;;;17.46
79632;BMP280;69108;41.120;16.874;2023-11-22T08:23:12;100521.38;;;17.65
79632;BMP280;69108;41.120;16.874;2023-11-22T08:25:52;100515.72;;;17.69
79632;BMP280;69108;41.120;16.874;2023-11-22T08:28:23;100532.38;;;17.71
79632;BMP280;69108;41.120;16.874;2023-11-22T08:30:52;100529.75;;;17.76
79632;BMP280;69108;41.120;16.874;2023-11-22T08:33:21;100533.97;;;17.77
79632;BMP280;69108;41.120;16.874;2023-11-22T08:35:49;100536.22;;;17.79
79632;BMP280;69108;41.120;16.874;2023-11-22T08:38:23;100539.78;;;17.85
79632;BMP280;69108;41.120;16.874;2023-11-22T08:40:50;100536.31;;;17.84
79632;BMP280;69108;41.120;16.874;2023-11-22T08:43:20;100541.28;;;17.86
79632;BMP280;69108;41.120;16.874;2023-11-22T08:45:51;100534.97;;;17.80
79632;BMP280;69108;41.120;16.874;2023-11-22T08:48:18;100542.81;;;17.87
79632;BMP280;69108;41.120;16.874;2023-11-22T08:50:47;100546.09;;;17.91
79632;BMP280;69108;41.120;16.874;2023-11-22T08:53:17;100542.13;;;17.92
79632;BMP280;69108;41.120;16.874;2023-11-22T08:55:45;100550.63;;;17.94
79632;BMP280;69108;41.120;16.874;2023-11-22T08:58:13;100551.44;;;18.00
79632;BMP280;69108;41.120;16.874;2023-11-22T09:00:44;100550.22;;;18.01
79632;BMP280;69108;41.120;16.874;2023-11-22T09:03:14;100554.34;;;18.11
79632;BMP280;69108;41.120;16.874;2023-11-22T09:05:43;100538.97;;;18.13
79632;BMP280;69108;41.120;16.874;2023-11-22T09:08:14;100562.22;;;18.23
79632;BMP280;69108;41.120;16.874;2023-11-22T09:10:43;100554.34;;;18.31
79632;BMP280;69108;41.120;16.874;2023-11-22T09:13:17;100550.94;;;18.36
79632;BMP280;69108;41.120;16.874;2023-11-22T09:15:49;100557.31;;;18.27
79632;BMP280;69108;41.120;16.874;2023-11-22T09:18:19;100568.44;;;18.24
79632;BMP280;69108;41.120;16.874;2023-11-22T09:20:47;100564.19;;;18.23
79632;BMP280;69108;41.120;16.874;2023-11-22T09:23:17;100571.16;;;18.24
79632;BMP280;69108;41.120;16.874;2023-11-22T09:25:51;100571.41;;;18.26
79632;BMP280;69108;41.120;16.874;2023-11-22T09:28:18;100584.09;;;18.23
79632;BMP280;69108;41.120;16.874;2023-11-22T09:30:46;100572.69;;;18.25
79632;BMP280;69108;41.120;16.874;2023-11-22T09:33:15;100570.41;;;18.23
79632;BMP280;69108;41.120;16.874;2023-11-22T09:35:45;100569.19;;;18.24
79632;BMP280;69108;41.120;16.874;2023-11-22T09:38:18;100555.03;;;18.26
79632;BMP280;69108;41.120;16.874;2023-11-22T09:40:49;100547.78;;;18.23
79632;BMP280;69108;41.120;16.874;2023-11-22T09:46:30;100551.75;;;18.22
79632;BMP280;69108;41.120;16.874;2023-11-22T09:49:02;100554.97;;;18.20
79632;BMP280;69108;41.120;16.874;2023-11-22T09:51:41;100561.53;;;18.28
79632;BMP280;69108;41.120;16.874;2023-11-22T09:54:14;100557.31;;;18.27
79632;BMP280;69108;41.120;16.874;2023-11-22T09:56:41;100552.50;;;18.22
79632;BMP280;69108;41.120;16.874;2023-11-22T09:59:18;100557.03;;;18.25
79632;BMP280;69108;41.120;16.874;2023-11-22T10:01:48;100557.06;;;18.31
79632;BMP280;69108;41.120;16.874;2023-11-22T10:04:16;100556.41;;;18.36
79632;BMP280;69108;41.120;16.874;2023-11-22T10:06:43;100554.66;;;18.33
79632;BMP280;69108;41.120;16.874;2023-11-22T10:09:18;100561.59;;;18.34
79632;BMP280;69108;41.120;16.874;2023-11-22T10:11:50;100554.97;;;18.41
79632;BMP280;69108;41.120;16.874;2023-11-22T10:14:23;100556.28;;;18.45
79632;BMP280;69108;41.120;16.874;2023-11-22T10:16:59;100570.50;;;18.49
79632;BMP280;69108;41.120;16.874;2023-11-22T10:19:31;100563.81;;;18.50
79632;BMP280;69108;41.120;16.874;2023-11-22T10:22:05;100564.28;;;18.49
79632;BMP280;69108;41.120;16.874;2023-11-22T10:24:44;100565.03;;;18.49
79632;BMP280;69108;41.120;16.874;2023-11-22T10:27:14;100569.28;;;18.50
79632;BMP280;69108;41.120;16.874;2023-11-22T10:29:50;100574.06;;;18.55
79632;BMP280;69108;41.120;16.874;2023-11-22T10:32:19;100575.06;;;18.58
79632;BMP280;69108;41.120;16.874;2023-11-22T10:34:51;100579.81;;;18.57
79632;BMP280;69108;41.120;16.874;2023-11-22T10:37:18;100575.66;;;18.62
79632;BMP280;69108;41.120;16.874;2023-11-22T10:39:54;100582.41;;;18.66
79632;BMP280;69108;41.120;16.874;2023-11-22T10:42:22;100574.44;;;18.68
79632;BMP280;69108;41.120;16.874;2023-11-22T10:44:51;100570.84;;;18.57
79632;BMP280;69108;41.120;16.874;2023-11-22T10:47:25;100563.88;;;18.56
79632;BMP280;69108;41.120;16.874;2023-11-22T10:49:54;100576.66;;;18.64
79632;BMP280;69108;41.120;16.874;2023-11-22T10:52:26;100569.28;;;18.70
79632;BMP280;69108;41.120;16.874;2023-11-22T10:55:02;100572.81;;;18.76
79632;BMP280;69108;41.120;16.874;2023-11-22T10:57:32;100559.69;;;18.80
79632;BMP280;69108;41.120;16.874;2023-11-22T11:00:07;100565.66;;;18.79
79632;BMP280;69108;41.120;16.874;2023-11-22T11:02:41;100567.91;;;18.80
79632;BMP280;69108;41.120;16.874;2023-11-22T11:05:16;100566.38;;;18.79
79632;BMP280;69108;41.120;16.874;2023-11-22T11:07:49;100563.66;;;18.79
79632;BMP280;69108;41.120;16.874;2023-11-22T11:10:21;100573.56;;;18.77
79632;BMP280;69108;41.120;16.874;2023-11-22T11:12:50;100575.13;;;18.83
79632;BMP280;69108;41.120;16.874;2023-11-22T11:15:20;100581.16;;;18.87
79632;BMP280;69108;41.120;16.874;2023-11-22T11:17:50;100598.31;;;18.88
79632;BMP280;69108;41.120;16.874;2023-11-22T11:20:23;100614.06;;;18.93
79632;BMP280;69108;41.120;16.874;2023-11-22T11:22:50;100613.31;;;18.92
79632;BMP280;69108;41.120;16.874;2023-11-22T11:25:20;100629.72;;;18.92
79632;BMP280;69108;41.120;16.874;2023-11-22T11:27:59;100629.72;;;18.92
79632;BMP280;69108;41.120;16.874;2023-11-22T11:30:44;100630.69;;;18.89
79632;BMP280;69108;41.120;16.874;2023-11-22T11:33:13;100625.47;;;18.91
79632;BMP280;69108;41.120;16.874;2023-11-22T11:35:47;100629.25;;;18.94
79632;BMP280;69108;41.120;16.874;2023-11-22T11:38:22;100620.31;;;18.93
79632;BMP280;69108;41.120;16.874;2023-11-22T11:41:11;100622.28;;;18.93
79632;BMP280;69108;41.120;16.874;2023-11-22T11:43:40;100634.72;;;18.94
79632;BMP280;69108;41.120;16.874;2023-11-22T11:46:20;100631.97;;;18.94
79632;BMP280;69108;41.120;16.874;2023-11-22T11:48:50;100631.00;;;18.97
79632;BMP280;69108;41.120;16.874;2023-11-22T11:51:22;100634.31;;;19.01
79632;BMP280;69108;41.120;16.874;2023-11-22T11:53:54;100626.09;;;19.01
79632;BMP280;69108;41.120;16.874;2023-11-22T11:56:22;100626.56;;;18.99
79632;BMP280;69108;41.120;16.874;2023-11-22T11:58:56;100638.06;;;19.03
79632;BMP280;69108;41.120;16.874;2023-11-22T12:01:28;100637.28;;;19.03
79632;BMP280;69108;41.120;16.874;2023-11-22T12:04:01;100640.22;;;18.99
79632;BMP280;69108;41.120;16.874;2023-11-22T12:06:31;100641.22;;;18.96
79632;BMP280;69108;41.120;16.874;2023-11-22T12:09:03;100634.75;;;18.99
79632;BMP280;69108;41.120;16.874;2023-11-22T12:11:43;100643.66;;;18.94
79632;BMP280;69108;41.120;16.874;2023-11-22T12:14:12;100660.91;;;19.00
79632;BMP280;69108;41.120;16.874;2023-11-22T12:16:44;100661.59;;;18.95
79632;BMP280;69108;41.120;16.874;2023-11-22T12:19:21;100660.22;;;18.85
79632;BMP280;69108;41.120;16.874;2023-11-22T12:21:49;100672.97;;;18.88
79632;BMP280;69108;41.120;16.874;2023-11-22T12:24:17;100675.16;;;18.84
79632;BMP280;69108;41.120;16.874;2023-11-22T12:26:50;100676.94;;;18.87
79632;BMP280;69108;41.120;16.874;2023-11-22T12:29:21;100684.41;;;18.87
79632;BMP280;69108;41.120;16.874;2023-11-22T12:31:51;100689.09;;;18.86
79632;BMP280;69108;41.120;16.874;2023-11-22T12:34:21;100692.69;;;18.92
79632;BMP280;69108;41.120;16.874;2023-11-22T12:36:52;100689.94;;;18.92
79632;BMP280;69108;41.120;16.874;2023-11-22T12:39:21;100702.88;;;18.92
79632;BMP280;69108;41.120;16.874;2023-11-22T12:41:56;100714.94;;;18.85
79632;BMP280;69108;41.120;16.874;2023-11-22T12:44:26;100720.09;;;18.78
79632;BMP280;69108;41.120;16.874;2023-11-22T12:47:00;100723.03;;;18.74
79632;BMP280;69108;41.120;16.874;2023-11-22T12:49:43;100718.22;;;18.69
79632;BMP280;69108;41.120;16.874;2023-11-22T12:52:16;100724.91;;;18.68
79632;BMP280;69108;41.120;16.874;2023-11-22T12:54:45;100731.25;;;18.60
79632;BMP280;69108;41.120;16.874;2023-11-22T12:57:28;100720.09;;;18.43
79632;BMP280;69108;41.120;16.874;2023-11-22T12:59:55;100730.63;;;18.50
79632;BMP280;69108;41.120;16.874;2023-11-22T13:02:27;100734.59;;;18.49
79632;BMP280;69108;41.120;16.874;2023-11-22T13:04:57;100729.13;;;18.49
79632;BMP280;69108;41.120;16.874;2023-11-22T13:07:25;100727.03;;;18.44
79632;BMP280;69108;41.120;16.874;2023-11-22T13:09:53;100735.66;;;18.37
79632;BMP280;69108;41.120;16.874;2023-11-22T13:12:21;100734.34;;;18.33
79632;BMP280;69108;41.120;16.874;2023-11-22T13:14:56;100732.56;;;18.29
79632;BMP280;69108;41.120;16.874;2023-11-22T13:17:23;100746.13;;;18.24
79632;BMP280;69108;41.120;16.874;2023-11-22T13:19:51;100749.06;;;18.20
79632;BMP280;69108;41.120;16.874;2023-11-22T13:22:19;100755.00;;;18.19
79632;BMP280;69108;41.120;16.874;2023-11-22T13:24:50;100750.66;;;18.12
79632;BMP280;69108;41.120;16.874;2023-11-22T13:27:19;100743.28;;;18.04
79632;BMP280;69108;41.120;16.874;2023-11-22T13:29:47;100746.97;;;18.01
79632;BMP280;69108;41.120;16.874;2023-11-22T13:32:16;100750.19;;;17.99
79632;BMP280;69108;41.120;16.874;2023-11-22T13:34:43;100745.66;;;17.96
79632;BMP280;69108;41.120;16.874;2023-11-22T13:37:11;100753.56;;;17.94
79632;BMP280;69108;41.120;16.874;2023-11-22T13:39:44;100753.56;;;17.94
79632;BMP280;69108;41.120;16.874;2023-11-22T13:42:16;100749.88;;;17.97
79632;BMP280;69108;41.120;16.874;2023-11-22T13:44:43;100752.44;;;18.01
79632;BMP280;69108;41.120;16.874;2023-11-22T13:47:13;100748.28;;;18.05
79632;BMP280;69108;41.120;16.874;2023-11-22T13:49:42;100748.66;;;18.13
79632;BMP280;69108;41.120;16.874;2023-11-22T13:52:11;100752.72;;;18.17
79632;BMP280;69108;41.120;16.874;2023-11-22T13:54:38;100751.22;;;18.16
79632;BMP280;69108;41.120;16.874;2023-11-22T13:57:06;100754.53;;;18.20
79632;BMP280;69108;41.120;16.874;2023-11-22T13:59:33;100754.06;;;18.22
79632;BMP280;69108;41.120;16.874;2023-11-22T14:02:00;100757.84;;;18.24